sensor_id;sensor_type;location;lat;lon;timestamp;temperature;humidity
32097;DHT22;18610;49.916;8.284;2023-11-19T00:00:26;9.10;99.90
32097;DHT22;18610;49.916;8.284;2023-11-19T00:02:52;9.10;99.90
32097;DHT22;18610;49.916;8.284;2023-11-19T00:05:19;9.10;99.90
32097;DHT22;18610;49.916;8.284;2023-11-19T00:07:46;9.20;99.90
32097;DHT22;18610;49.916;8.284;2023-11-19T00:10:15;9.20;99.90
32097;DHT22;18610;49.916;8.284;2023-11-19T00:12:45;9.20;99.90
32097;DHT22;18610;49.916;8.284;2023-11-19T00:15:12;9.20;99.90
32097;DHT22;18610;49.916;8.284;2023-11-19T00:17:39;9.30;99.90
32097;DHT22;18610;49.916;8.284;2023-11-19T00:20:10;9.30;99.90
32097;DHT22;18610;49.916;8.284;2023-11-19T00:22:37;9.30;99.90
32097;DHT22;18610;49.916;8.284;2023-11-19T00:25:05;9.30;99.90
32097;DHT22;18610;49.916;8.284;2023-11-19T00:27:33;9.30;99.90
32097;DHT22;18610;49.916;8.284;2023-11-19T00:30:00;9.30;99.90
32097;DHT22;18610;49.916;8.284;2023-11-19T00:32:26;9.40;99.90
32097;DHT22;18610;49.916;8.284;2023-11-19T00:34:53;9.40;99.90
32097;DHT22;18610;49.916;8.284;2023-11-19T00:37:19;9.40;99.90
32097;DHT22;18610;49.916;8.284;2023-11-19T00:39:46;9.40;99.90
32097;DHT22;18610;49.916;8.284;2023-11-19T00:42:13;9.40;99.90
32097;DHT22;18610;49.916;8.284;2023-11-19T00:44:41;9.40;99.90
32097;DHT22;18610;49.916;8.284;2023-11-19T00:47:08;9.40;99.90
32097;DHT22;18610;49.916;8.284;2023-11-19T00:49:34;9.40;99.90
32097;DHT22;18610;49.916;8.284;2023-11-19T00:52:01;9.50;99.90
32097;DHT22;18610;49.916;8.284;2023-11-19T00:54:28;9.50;99.90
32097;DHT22;18610;49.916;8.284;2023-11-19T00:56:55;9.50;99.90
32097;DHT22;18610;49.916;8.284;2023-11-19T00:59:22;9.50;99.90
32097;DHT22;18610;49.916;8.284;2023-11-19T01:01:50;9.50;99.90
32097;DHT22;18610;49.916;8.284;2023-11-19T01:04:17;9.50;99.90
32097;DHT22;18610;49.916;8.284;2023-11-19T01:06:44;9.50;99.90
32097;DHT22;18610;49.916;8.284;2023-11-19T01:09:11;9.50;99.90
32097;DHT22;18610;49.916;8.284;2023-11-19T01:11:37;9.50;99.90
32097;DHT22;18610;49.916;8.284;2023-11-19T01:14:04;9.50;99.90
32097;DHT22;18610;49.916;8.284;2023-11-19T01:16:31;9.50;99.90
32097;DHT22;18610;49.916;8.284;2023-11-19T01:18:59;9.60;99.90
32097;DHT22;18610;49.916;8.284;2023-11-19T01:21:30;9.60;99.90
32097;DHT22;18610;49.916;8.284;2023-11-19T01:23:57;9.60;99.90
32097;DHT22;18610;49.916;8.284;2023-11-19T01:26:24;9.60;99.90
32097;DHT22;18610;49.916;8.284;2023-11-19T01:28:50;9.60;99.90
32097;DHT22;18610;49.916;8.284;2023-11-19T01:31:18;9.60;99.90
32097;DHT22;18610;49.916;8.284;2023-11-19T01:33:45;9.60;99.90
32097;DHT22;18610;49.916;8.284;2023-11-19T01:36:14;9.60;99.90
32097;DHT22;18610;49.916;8.284;2023-11-19T01:38:41;9.70;99.90
32097;DHT22;18610;49.916;8.284;2023-11-19T01:41:07;9.70;99.90
32097;DHT22;18610;49.916;8.284;2023-11-19T01:43:35;9.70;99.90
32097;DHT22;18610;49.916;8.284;2023-11-19T01:46:02;9.70;99.90
32097;DHT22;18610;49.916;8.284;2023-11-19T01:48:30;9.70;99.90
32097;DHT22;18610;49.916;8.284;2023-11-19T01:50:58;9.80;99.90
32097;DHT22;18610;49.916;8.284;2023-11-19T01:53:29;9.80;99.90
32097;DHT22;18610;49.916;8.284;2023-11-19T01:55:57;9.80;99.90
32097;DHT22;18610;49.916;8.284;2023-11-19T01:58:24;9.90;99.90
32097;DHT22;18610;49.916;8.284;2023-11-19T02:00:51;9.90;99.90
32097;DHT22;18610;49.916;8.284;2023-11-19T02:03:18;9.90;99.90
32097;DHT22;18610;49.916;8.284;2023-11-19T02:05:48;9.90;99.90
32097;DHT22;18610;49.916;8.284;2023-11-19T02:08:16;9.90;99.90
32097;DHT22;18610;49.916;8.284;2023-11-19T02:10:44;9.90;99.90
32097;DHT22;18610;49.916;8.284;2023-11-19T02:13:11;9.90;99.90
32097;DHT22;18610;49.916;8.284;2023-11-19T02:15:39;9.90;99.90
32097;DHT22;18610;49.916;8.284;2023-11-19T02:18:19;9.90;99.90
32097;DHT22;18610;49.916;8.284;2023-11-19T02:20:47;9.90;99.90
32097;DHT22;18610;49.916;8.284;2023-11-19T02:23:14;9.90;99.90
32097;DHT22;18610;49.916;8.284;2023-11-19T02:25:44;9.90;99.90
32097;DHT22;18610;49.916;8.284;2023-11-19T02:28:16;9.90;99.90
32097;DHT22;18610;49.916;8.284;2023-11-19T02:30:43;10.00;99.90
32097;DHT22;18610;49.916;8.284;2023-11-19T02:33:10;9.90;99.90
32097;DHT22;18610;49.916;8.284;2023-11-19T02:35:38;9.90;99.90
32097;DHT22;18610;49.916;8.284;2023-11-19T02:38:06;9.90;99.90
32097;DHT22;18610;49.916;8.284;2023-11-19T02:40:33;10.00;99.90
32097;DHT22;18610;49.916;8.284;2023-11-19T02:43:00;10.00;99.90
32097;DHT22;18610;49.916;8.284;2023-11-19T02:45:31;10.00;99.90
32097;DHT22;18610;49.916;8.284;2023-11-19T02:47:57;10.00;99.90
32097;DHT22;18610;49.916;8.284;2023-11-19T02:50:27;10.00;99.90
32097;DHT22;18610;49.916;8.284;2023-11-19T02:52:55;10.00;99.90
32097;DHT22;18610;49.916;8.284;2023-11-19T02:55:22;10.10;99.90
32097;DHT22;18610;49.916;8.284;2023-11-19T02:57:50;10.10;99.90
32097;DHT22;18610;49.916;8.284;2023-11-19T03:00:20;10.20;99.90
32097;DHT22;18610;49.916;8.284;2023-11-19T03:02:50;10.20;99.90
32097;DHT22;18610;49.916;8.284;2023-11-19T03:05:25;10.20;99.90
32097;DHT22;18610;49.916;8.284;2023-11-19T03:07:52;10.20;99.90
32097;DHT22;18610;49.916;8.284;2023-11-19T03:10:18;10.30;99.90
32097;DHT22;18610;49.916;8.284;2023-11-19T03:12:45;10.30;99.90
32097;DHT22;18610;49.916;8.284;2023-11-19T03:15:12;10.30;99.90
32097;DHT22;18610;49.916;8.284;2023-11-19T03:17:38;10.30;99.90
32097;DHT22;18610;49.916;8.284;2023-11-19T03:20:08;10.30;99.90
32097;DHT22;18610;49.916;8.284;2023-11-19T03:22:37;10.30;99.90
32097;DHT22;18610;49.916;8.284;2023-11-19T03:25:04;10.30;99.90
32097;DHT22;18610;49.916;8.284;2023-11-19T03:27:33;10.30;99.90
32097;DHT22;18610;49.916;8.284;2023-11-19T03:30:01;10.30;99.90
32097;DHT22;18610;49.916;8.284;2023-11-19T03:32:28;10.30;99.90
32097;DHT22;18610;49.916;8.284;2023-11-19T03:34:54;10.30;99.90
32097;DHT22;18610;49.916;8.284;2023-11-19T03:37:23;10.30;99.90
32097;DHT22;18610;49.916;8.284;2023-11-19T03:39:50;10.30;99.90
32097;DHT22;18610;49.916;8.284;2023-11-19T03:42:19;10.30;99.90
32097;DHT22;18610;49.916;8.284;2023-11-19T03:44:46;10.30;99.90
32097;DHT22;18610;49.916;8.284;2023-11-19T03:47:12;10.40;99.90
32097;DHT22;18610;49.916;8.284;2023-11-19T03:49:39;10.40;99.90
32097;DHT22;18610;49.916;8.284;2023-11-19T03:52:05;10.40;99.90
32097;DHT22;18610;49.916;8.284;2023-11-19T03:54:33;10.40;99.90
32097;DHT22;18610;49.916;8.284;2023-11-19T03:57:00;10.40;99.90
32097;DHT22;18610;49.916;8.284;2023-11-19T03:59:29;10.40;99.90
32097;DHT22;18610;49.916;8.284;2023-11-19T04:01:56;10.50;99.90
32097;DHT22;18610;49.916;8.284;2023-11-19T04:04:26;10.50;99.90
32097;DHT22;18610;49.916;8.284;2023-11-19T04:06:53;10.50;99.90
32097;DHT22;18610;49.916;8.284;2023-11-19T04:09:19;10.50;99.90
32097;DHT22;18610;49.916;8.284;2023-11-19T04:11:47;10.50;99.90
32097;DHT22;18610;49.916;8.284;2023-11-19T04:14:14;10.50;99.90
32097;DHT22;18610;49.916;8.284;2023-11-19T04:16:43;10.50;99.90
32097;DHT22;18610;49.916;8.284;2023-11-19T04:19:10;10.60;99.90
32097;DHT22;18610;49.916;8.284;2023-11-19T04:21:37;10.50;99.90
32097;DHT22;18610;49.916;8.284;2023-11-19T04:24:04;10.60;99.90
32097;DHT22;18610;49.916;8.284;2023-11-19T04:26:30;10.60;99.90
32097;DHT22;18610;49.916;8.284;2023-11-19T04:28:58;10.60;99.90
32097;DHT22;18610;49.916;8.284;2023-11-19T04:31:29;10.60;99.90
32097;DHT22;18610;49.916;8.284;2023-11-19T04:33:56;10.60;99.90
32097;DHT22;18610;49.916;8.284;2023-11-19T04:36:25;10.60;99.90
32097;DHT22;18610;49.916;8.284;2023-11-19T04:38:52;10.70;99.90
32097;DHT22;18610;49.916;8.284;2023-11-19T04:41:19;10.70;99.90
32097;DHT22;18610;49.916;8.284;2023-11-19T04:43:46;10.70;99.90
32097;DHT22;18610;49.916;8.284;2023-11-19T04:46:14;10.70;99.90
32097;DHT22;18610;49.916;8.284;2023-11-19T04:48:40;10.70;99.90
32097;DHT22;18610;49.916;8.284;2023-11-19T04:51:10;10.80;99.90
32097;DHT22;18610;49.916;8.284;2023-11-19T04:53:37;10.80;99.90
32097;DHT22;18610;49.916;8.284;2023-11-19T04:56:08;10.80;99.90
32097;DHT22;18610;49.916;8.284;2023-11-19T04:58:35;10.80;99.90
32097;DHT22;18610;49.916;8.284;2023-11-19T05:01:03;10.80;99.90
32097;DHT22;18610;49.916;8.284;2023-11-19T05:03:33;10.80;99.90
32097;DHT22;18610;49.916;8.284;2023-11-19T05:06:01;10.80;99.90
32097;DHT22;18610;49.916;8.284;2023-11-19T05:08:28;10.80;99.90
32097;DHT22;18610;49.916;8.284;2023-11-19T05:10:55;10.90;99.90
32097;DHT22;18610;49.916;8.284;2023-11-19T05:13:23;10.90;99.90
32097;DHT22;18610;49.916;8.284;2023-11-19T05:15:49;10.90;99.90
32097;DHT22;18610;49.916;8.284;2023-11-19T05:18:16;10.90;99.90
32097;DHT22;18610;49.916;8.284;2023-11-19T05:20:44;10.90;99.90
32097;DHT22;18610;49.916;8.284;2023-11-19T05:23:11;10.90;99.90
32097;DHT22;18610;49.916;8.284;2023-11-19T05:25:37;10.90;99.90
32097;DHT22;18610;49.916;8.284;2023-11-19T05:28:04;10.90;99.90
32097;DHT22;18610;49.916;8.284;2023-11-19T05:30:31;11.00;99.90
32097;DHT22;18610;49.916;8.284;2023-11-19T05:32:57;11.00;99.90
32097;DHT22;18610;49.916;8.284;2023-11-19T05:35:24;11.00;99.90
32097;DHT22;18610;49.916;8.284;2023-11-19T05:37:52;11.00;99.90
32097;DHT22;18610;49.916;8.284;2023-11-19T05:40:19;11.00;99.90
32097;DHT22;18610;49.916;8.284;2023-11-19T05:42:46;11.10;99.90
32097;DHT22;18610;49.916;8.284;2023-11-19T05:45:12;11.10;99.90
32097;DHT22;18610;49.916;8.284;2023-11-19T05:47:39;11.10;99.90
32097;DHT22;18610;49.916;8.284;2023-11-19T05:50:07;11.10;99.90
32097;DHT22;18610;49.916;8.284;2023-11-19T05:52:34;11.20;99.90
32097;DHT22;18610;49.916;8.284;2023-11-19T05:55:02;11.20;99.90
32097;DHT22;18610;49.916;8.284;2023-11-19T05:57:30;11.20;99.90
32097;DHT22;18610;49.916;8.284;2023-11-19T06:00:00;11.20;99.90
32097;DHT22;18610;49.916;8.284;2023-11-19T06:02:26;11.20;99.90
32097;DHT22;18610;49.916;8.284;2023-11-19T06:04:53;11.30;99.90
32097;DHT22;18610;49.916;8.284;2023-11-19T06:07:20;11.30;99.90
32097;DHT22;18610;49.916;8.284;2023-11-19T06:09:46;11.30;99.90
32097;DHT22;18610;49.916;8.284;2023-11-19T06:12:14;11.30;99.90
32097;DHT22;18610;49.916;8.284;2023-11-19T06:14:41;11.30;99.90
32097;DHT22;18610;49.916;8.284;2023-11-19T06:17:08;11.30;99.90
32097;DHT22;18610;49.916;8.284;2023-11-19T06:19:36;11.40;99.90
32097;DHT22;18610;49.916;8.284;2023-11-19T06:22:07;11.30;99.90
32097;DHT22;18610;49.916;8.284;2023-11-19T06:24:34;11.30;99.90
32097;DHT22;18610;49.916;8.284;2023-11-19T06:27:01;11.40;99.90
32097;DHT22;18610;49.916;8.284;2023-11-19T06:29:28;11.30;99.90
32097;DHT22;18610;49.916;8.284;2023-11-19T06:31:55;11.40;99.90
32097;DHT22;18610;49.916;8.284;2023-11-19T06:34:22;11.40;99.90
32097;DHT22;18610;49.916;8.284;2023-11-19T06:36:49;11.40;99.90
32097;DHT22;18610;49.916;8.284;2023-11-19T06:39:15;11.40;99.90
32097;DHT22;18610;49.916;8.284;2023-11-19T06:41:45;11.40;99.90
32097;DHT22;18610;49.916;8.284;2023-11-19T06:44:11;11.50;99.90
32097;DHT22;18610;49.916;8.284;2023-11-19T06:46:40;11.50;99.90
32097;DHT22;18610;49.916;8.284;2023-11-19T06:49:07;11.50;99.90
32097;DHT22;18610;49.916;8.284;2023-11-19T06:51:33;11.60;99.90
32097;DHT22;18610;49.916;8.284;2023-11-19T06:54:00;11.60;99.90
32097;DHT22;18610;49.916;8.284;2023-11-19T06:56:27;11.60;99.90
32097;DHT22;18610;49.916;8.284;2023-11-19T06:58:53;11.60;99.90
32097;DHT22;18610;49.916;8.284;2023-11-19T07:01:20;11.60;99.90
32097;DHT22;18610;49.916;8.284;2023-11-19T07:03:48;11.50;99.90
32097;DHT22;18610;49.916;8.284;2023-11-19T07:06:16;11.50;99.90
32097;DHT22;18610;49.916;8.284;2023-11-19T07:08:44;11.50;99.90
32097;DHT22;18610;49.916;8.284;2023-11-19T07:11:11;11.50;99.90
32097;DHT22;18610;49.916;8.284;2023-11-19T07:13:39;11.50;99.90
32097;DHT22;18610;49.916;8.284;2023-11-19T07:16:07;11.60;99.90
32097;DHT22;18610;49.916;8.284;2023-11-19T07:18:35;11.60;99.90
32097;DHT22;18610;49.916;8.284;2023-11-19T07:21:04;11.60;99.90
32097;DHT22;18610;49.916;8.284;2023-11-19T07:23:31;11.60;99.90
32097;DHT22;18610;49.916;8.284;2023-11-19T07:25:58;11.60;99.90
32097;DHT22;18610;49.916;8.284;2023-11-19T07:28:25;11.60;99.90
32097;DHT22;18610;49.916;8.284;2023-11-19T07:30:54;11.60;99.90
32097;DHT22;18610;49.916;8.284;2023-11-19T07:33:21;11.70;99.90
32097;DHT22;18610;49.916;8.284;2023-11-19T07:35:48;11.60;99.90
32097;DHT22;18610;49.916;8.284;2023-11-19T07:38:16;11.70;99.90
32097;DHT22;18610;49.916;8.284;2023-11-19T07:40:43;11.70;99.90
32097;DHT22;18610;49.916;8.284;2023-11-19T07:43:10;11.70;99.90
32097;DHT22;18610;49.916;8.284;2023-11-19T07:45:36;11.70;99.90
32097;DHT22;18610;49.916;8.284;2023-11-19T07:48:03;11.80;99.90
32097;DHT22;18610;49.916;8.284;2023-11-19T07:50:32;11.80;99.90
32097;DHT22;18610;49.916;8.284;2023-11-19T07:52:58;11.80;99.90
32097;DHT22;18610;49.916;8.284;2023-11-19T07:55:27;11.90;99.90
32097;DHT22;18610;49.916;8.284;2023-11-19T07:57:54;12.00;99.90
32097;DHT22;18610;49.916;8.284;2023-11-19T08:00:20;12.10;99.90
32097;DHT22;18610;49.916;8.284;2023-11-19T08:02:47;12.20;99.90
32097;DHT22;18610;49.916;8.284;2023-11-19T08:05:14;12.30;99.90
32097;DHT22;18610;49.916;8.284;2023-11-19T08:07:41;12.40;99.90
32097;DHT22;18610;49.916;8.284;2023-11-19T08:10:08;12.40;99.90
32097;DHT22;18610;49.916;8.284;2023-11-19T08:12:37;12.50;99.90
32097;DHT22;18610;49.916;8.284;2023-11-19T08:15:05;12.50;99.90
32097;DHT22;18610;49.916;8.284;2023-11-19T08:17:32;12.60;99.90
32097;DHT22;18610;49.916;8.284;2023-11-19T08:19:59;12.70;99.90
32097;DHT22;18610;49.916;8.284;2023-11-19T08:22:25;12.80;99.90
32097;DHT22;18610;49.916;8.284;2023-11-19T08:24:52;12.90;99.90
32097;DHT22;18610;49.916;8.284;2023-11-19T08:27:19;12.90;99.90
32097;DHT22;18610;49.916;8.284;2023-11-19T08:29:53;13.00;99.90
32097;DHT22;18610;49.916;8.284;2023-11-19T08:32:21;13.10;99.90
32097;DHT22;18610;49.916;8.284;2023-11-19T08:34:47;13.20;99.90
32097;DHT22;18610;49.916;8.284;2023-11-19T08:37:14;13.30;99.90
32097;DHT22;18610;49.916;8.284;2023-11-19T08:39:43;13.30;99.90
32097;DHT22;18610;49.916;8.284;2023-11-19T08:42:10;13.30;99.90
32097;DHT22;18610;49.916;8.284;2023-11-19T08:44:36;13.30;99.90
32097;DHT22;18610;49.916;8.284;2023-11-19T08:47:05;13.30;99.90
32097;DHT22;18610;49.916;8.284;2023-11-19T08:49:31;13.30;99.90
32097;DHT22;18610;49.916;8.284;2023-11-19T08:51:58;13.30;99.90
32097;DHT22;18610;49.916;8.284;2023-11-19T08:54:24;13.30;99.90
32097;DHT22;18610;49.916;8.284;2023-11-19T08:56:51;13.30;99.90
32097;DHT22;18610;49.916;8.284;2023-11-19T08:59:18;13.20;99.90
32097;DHT22;18610;49.916;8.284;2023-11-19T09:01:45;13.20;99.90
32097;DHT22;18610;49.916;8.284;2023-11-19T09:04:13;13.20;99.90
32097;DHT22;18610;49.916;8.284;2023-11-19T09:06:41;13.20;99.90
32097;DHT22;18610;49.916;8.284;2023-11-19T09:09:08;13.30;99.90
32097;DHT22;18610;49.916;8.284;2023-11-19T09:11:35;13.30;99.90
32097;DHT22;18610;49.916;8.284;2023-11-19T09:14:02;13.50;99.90
32097;DHT22;18610;49.916;8.284;2023-11-19T09:16:29;13.70;99.90
32097;DHT22;18610;49.916;8.284;2023-11-19T09:18:56;13.90;99.90
32097;DHT22;18610;49.916;8.284;2023-11-19T09:21:26;14.10;99.90
32097;DHT22;18610;49.916;8.284;2023-11-19T09:23:52;14.30;99.90
32097;DHT22;18610;49.916;8.284;2023-11-19T09:26:19;14.50;99.90
32097;DHT22;18610;49.916;8.284;2023-11-19T09:28:46;14.60;99.90
32097;DHT22;18610;49.916;8.284;2023-11-19T09:31:13;14.80;99.90
32097;DHT22;18610;49.916;8.284;2023-11-19T09:33:40;15.00;99.90
32097;DHT22;18610;49.916;8.284;2023-11-19T09:36:07;15.10;99.90
32097;DHT22;18610;49.916;8.284;2023-11-19T09:38:35;15.30;99.90
32097;DHT22;18610;49.916;8.284;2023-11-19T09:41:04;15.40;99.90
32097;DHT22;18610;49.916;8.284;2023-11-19T09:43:34;15.60;99.90
32097;DHT22;18610;49.916;8.284;2023-11-19T09:46:04;15.70;99.90
32097;DHT22;18610;49.916;8.284;2023-11-19T09:48:32;15.80;99.90
32097;DHT22;18610;49.916;8.284;2023-11-19T09:51:00;16.00;99.90
32097;DHT22;18610;49.916;8.284;2023-11-19T09:53:27;16.20;99.90
32097;DHT22;18610;49.916;8.284;2023-11-19T09:55:55;16.20;99.90
32097;DHT22;18610;49.916;8.284;2023-11-19T09:58:22;16.30;99.90
32097;DHT22;18610;49.916;8.284;2023-11-19T10:00:50;16.40;99.90
32097;DHT22;18610;49.916;8.284;2023-11-19T10:03:17;16.50;99.90
32097;DHT22;18610;49.916;8.284;2023-11-19T10:05:44;16.60;99.90
32097;DHT22;18610;49.916;8.284;2023-11-19T10:08:10;16.70;99.90
32097;DHT22;18610;49.916;8.284;2023-11-19T10:10:37;16.70;99.90
32097;DHT22;18610;49.916;8.284;2023-11-19T10:13:05;16.70;99.90
32097;DHT22;18610;49.916;8.284;2023-11-19T10:15:36;16.80;99.90
32097;DHT22;18610;49.916;8.284;2023-11-19T10:18:03;16.70;99.90
32097;DHT22;18610;49.916;8.284;2023-11-19T10:20:35;16.70;99.90
32097;DHT22;18610;49.916;8.284;2023-11-19T10:23:02;16.60;99.90
32097;DHT22;18610;49.916;8.284;2023-11-19T10:25:29;16.40;99.90
32097;DHT22;18610;49.916;8.284;2023-11-19T10:27:57;16.30;99.90
32097;DHT22;18610;49.916;8.284;2023-11-19T10:30:26;16.10;99.90
32097;DHT22;18610;49.916;8.284;2023-11-19T10:33:08;16.00;99.90
32097;DHT22;18610;49.916;8.284;2023-11-19T10:35:36;15.90;99.90
32097;DHT22;18610;49.916;8.284;2023-11-19T10:38:16;16.00;99.90
32097;DHT22;18610;49.916;8.284;2023-11-19T10:40:43;16.10;99.90
32097;DHT22;18610;49.916;8.284;2023-11-19T10:43:10;16.30;99.90
32097;DHT22;18610;49.916;8.284;2023-11-19T10:45:39;16.60;99.90
32097;DHT22;18610;49.916;8.284;2023-11-19T10:48:06;16.90;99.90
32097;DHT22;18610;49.916;8.284;2023-11-19T10:50:34;17.30;99.90
32097;DHT22;18610;49.916;8.284;2023-11-19T10:53:02;17.70;99.90
32097;DHT22;18610;49.916;8.284;2023-11-19T10:55:30;17.80;99.90
32097;DHT22;18610;49.916;8.284;2023-11-19T10:57:59;17.80;99.90
32097;DHT22;18610;49.916;8.284;2023-11-19T11:00:29;17.70;99.90
32097;DHT22;18610;49.916;8.284;2023-11-19T11:03:00;17.60;99.90
32097;DHT22;18610;49.916;8.284;2023-11-19T11:05:29;17.60;99.90
32097;DHT22;18610;49.916;8.284;2023-11-19T11:08:00;17.50;99.90
32097;DHT22;18610;49.916;8.284;2023-11-19T11:10:28;17.60;99.90
32097;DHT22;18610;49.916;8.284;2023-11-19T11:12:59;17.50;99.90
32097;DHT22;18610;49.916;8.284;2023-11-19T11:15:30;17.50;99.90
32097;DHT22;18610;49.916;8.284;2023-11-19T11:18:00;17.60;99.90
32097;DHT22;18610;49.916;8.284;2023-11-19T11:20:29;18.00;99.90
32097;DHT22;18610;49.916;8.284;2023-11-19T11:25:54;19.00;99.90
32097;DHT22;18610;49.916;8.284;2023-11-19T11:28:31;19.70;99.90
32097;DHT22;18610;49.916;8.284;2023-11-19T11:31:09;20.40;99.90
32097;DHT22;18610;49.916;8.284;2023-11-19T11:34:06;20.40;99.90
32097;DHT22;18610;49.916;8.284;2023-11-19T11:36:43;20.10;99.90
32097;DHT22;18610;49.916;8.284;2023-11-19T11:39:14;19.50;99.90
32097;DHT22;18610;49.916;8.284;2023-11-19T11:41:42;19.00;99.90
32097;DHT22;18610;49.916;8.284;2023-11-19T11:44:08;18.50;99.90
32097;DHT22;18610;49.916;8.284;2023-11-19T11:46:53;18.10;99.90
32097;DHT22;18610;49.916;8.284;2023-11-19T11:49:28;17.60;99.90
32097;DHT22;18610;49.916;8.284;2023-11-19T11:52:03;17.40;99.90
32097;DHT22;18610;49.916;8.284;2023-11-19T11:54:31;17.40;99.90
32097;DHT22;18610;49.916;8.284;2023-11-19T11:57:02;17.60;99.20
32097;DHT22;18610;49.916;8.284;2023-11-19T11:59:36;18.00;98.90
32097;DHT22;18610;49.916;8.284;2023-11-19T12:02:03;18.40;98.50
32097;DHT22;18610;49.916;8.284;2023-11-19T12:04:31;18.70;96.20
32097;DHT22;18610;49.916;8.284;2023-11-19T12:07:04;19.00;96.00
32097;DHT22;18610;49.916;8.284;2023-11-19T12:09:31;19.40;94.60
32097;DHT22;18610;49.916;8.284;2023-11-19T12:12:08;19.70;93.90
32097;DHT22;18610;49.916;8.284;2023-11-19T12:15:03;19.80;92.40
32097;DHT22;18610;49.916;8.284;2023-11-19T12:17:47;19.90;92.50
32097;DHT22;18610;49.916;8.284;2023-11-19T12:20:19;20.00;92.30
32097;DHT22;18610;49.916;8.284;2023-11-19T12:22:47;20.30;92.10
32097;DHT22;18610;49.916;8.284;2023-11-19T12:25:15;20.50;92.40
32097;DHT22;18610;49.916;8.284;2023-11-19T12:27:44;20.80;91.40
32097;DHT22;18610;49.916;8.284;2023-11-19T12:30:11;21.00;91.20
32097;DHT22;18610;49.916;8.284;2023-11-19T12:32:39;21.20;91.00
32097;DHT22;18610;49.916;8.284;2023-11-19T12:35:07;21.40;90.00
32097;DHT22;18610;49.916;8.284;2023-11-19T12:37:41;21.60;87.60
32097;DHT22;18610;49.916;8.284;2023-11-19T12:40:13;21.90;87.30
32097;DHT22;18610;49.916;8.284;2023-11-19T12:42:40;22.00;83.80
32097;DHT22;18610;49.916;8.284;2023-11-19T12:45:07;22.00;82.40
32097;DHT22;18610;49.916;8.284;2023-11-19T12:47:36;21.90;81.30
32097;DHT22;18610;49.916;8.284;2023-11-19T12:50:03;21.70;80.70
32097;DHT22;18610;49.916;8.284;2023-11-19T12:52:30;21.70;80.80
32097;DHT22;18610;49.916;8.284;2023-11-19T12:54:58;21.60;81.00
32097;DHT22;18610;49.916;8.284;2023-11-19T12:57:36;21.60;80.40
32097;DHT22;18610;49.916;8.284;2023-11-19T13:00:04;21.40;81.40
32097;DHT22;18610;49.916;8.284;2023-11-19T13:02:45;21.60;81.50
32097;DHT22;18610;49.916;8.284;2023-11-19T13:05:26;21.40;79.10
32097;DHT22;18610;49.916;8.284;2023-11-19T13:08:00;21.00;81.10
32097;DHT22;18610;49.916;8.284;2023-11-19T13:10:28;20.70;83.00
32097;DHT22;18610;49.916;8.284;2023-11-19T13:13:06;20.80;83.00
32097;DHT22;18610;49.916;8.284;2023-11-19T13:15:34;20.80;82.80
32097;DHT22;18610;49.916;8.284;2023-11-19T13:18:01;20.90;83.30
32097;DHT22;18610;49.916;8.284;2023-11-19T13:20:28;20.90;81.80
32097;DHT22;18610;49.916;8.284;2023-11-19T13:22:56;20.90;82.60
32097;DHT22;18610;49.916;8.284;2023-11-19T13:25:23;21.00;80.30
32097;DHT22;18610;49.916;8.284;2023-11-19T13:27:51;21.10;80.00
32097;DHT22;18610;49.916;8.284;2023-11-19T13:30:18;21.20;79.70
32097;DHT22;18610;49.916;8.284;2023-11-19T13:32:45;21.20;79.50
32097;DHT22;18610;49.916;8.284;2023-11-19T13:35:12;21.20;77.40
32097;DHT22;18610;49.916;8.284;2023-11-19T13:37:39;21.00;78.00
32097;DHT22;18610;49.916;8.284;2023-11-19T13:40:07;20.90;78.00
32097;DHT22;18610;49.916;8.284;2023-11-19T13:42:36;20.90;78.30
32097;DHT22;18610;49.916;8.284;2023-11-19T13:45:04;20.80;77.40
32097;DHT22;18610;49.916;8.284;2023-11-19T13:47:36;20.80;77.30
32097;DHT22;18610;49.916;8.284;2023-11-19T13:50:03;20.70;77.10
32097;DHT22;18610;49.916;8.284;2023-11-19T13:52:31;20.60;77.60
32097;DHT22;18610;49.916;8.284;2023-11-19T13:54:58;20.50;77.50
32097;DHT22;18610;49.916;8.284;2023-11-19T13:57:25;20.20;78.70
32097;DHT22;18610;49.916;8.284;2023-11-19T13:59:51;19.80;79.90
32097;DHT22;18610;49.916;8.284;2023-11-19T14:02:22;19.30;81.60
32097;DHT22;18610;49.916;8.284;2023-11-19T14:04:48;18.90;84.50
32097;DHT22;18610;49.916;8.284;2023-11-19T14:07:15;18.40;85.60
32097;DHT22;18610;49.916;8.284;2023-11-19T14:09:42;18.00;87.70
32097;DHT22;18610;49.916;8.284;2023-11-19T14:12:09;17.80;89.50
32097;DHT22;18610;49.916;8.284;2023-11-19T14:14:38;17.80;89.30
32097;DHT22;18610;49.916;8.284;2023-11-19T14:17:05;17.90;89.90
32097;DHT22;18610;49.916;8.284;2023-11-19T14:19:34;18.10;89.10
32097;DHT22;18610;49.916;8.284;2023-11-19T14:22:01;18.30;88.30
32097;DHT22;18610;49.916;8.284;2023-11-19T14:24:28;18.50;87.40
32097;DHT22;18610;49.916;8.284;2023-11-19T14:26:54;18.60;87.10
32097;DHT22;18610;49.916;8.284;2023-11-19T14:29:24;18.70;86.60
32097;DHT22;18610;49.916;8.284;2023-11-19T14:31:51;18.80;86.50
32097;DHT22;18610;49.916;8.284;2023-11-19T14:34:18;18.80;86.00
32097;DHT22;18610;49.916;8.284;2023-11-19T14:36:46;18.80;85.80
32097;DHT22;18610;49.916;8.284;2023-11-19T14:39:14;18.80;85.10
32097;DHT22;18610;49.916;8.284;2023-11-19T14:41:42;18.60;85.60
32097;DHT22;18610;49.916;8.284;2023-11-19T14:44:09;18.50;85.90
32097;DHT22;18610;49.916;8.284;2023-11-19T14:46:36;18.30;86.60
32097;DHT22;18610;49.916;8.284;2023-11-19T14:49:03;18.10;87.80
32097;DHT22;18610;49.916;8.284;2023-11-19T14:51:30;17.90;89.00
32097;DHT22;18610;49.916;8.284;2023-11-19T14:53:58;17.60;89.10
32097;DHT22;18610;49.916;8.284;2023-11-19T14:56:25;17.40;89.80
32097;DHT22;18610;49.916;8.284;2023-11-19T14:58:51;17.00;90.40
32097;DHT22;18610;49.916;8.284;2023-11-19T15:01:18;16.70;91.10
32097;DHT22;18610;49.916;8.284;2023-11-19T15:03:45;16.40;91.70
32097;DHT22;18610;49.916;8.284;2023-11-19T15:06:11;16.30;92.60
32097;DHT22;18610;49.916;8.284;2023-11-19T15:08:38;16.20;92.80
32097;DHT22;18610;49.916;8.284;2023-11-19T15:11:07;16.20;93.10
32097;DHT22;18610;49.916;8.284;2023-11-19T15:13:34;16.00;93.40
32097;DHT22;18610;49.916;8.284;2023-11-19T15:16:03;15.90;93.90
32097;DHT22;18610;49.916;8.284;2023-11-19T15:18:30;15.80;93.70
32097;DHT22;18610;49.916;8.284;2023-11-19T15:20:57;15.80;94.40
32097;DHT22;18610;49.916;8.284;2023-11-19T15:23:24;15.60;94.70
32097;DHT22;18610;49.916;8.284;2023-11-19T15:25:51;15.60;95.10
32097;DHT22;18610;49.916;8.284;2023-11-19T15:28:18;15.50;95.20
32097;DHT22;18610;49.916;8.284;2023-11-19T15:30:45;15.40;95.30
32097;DHT22;18610;49.916;8.284;2023-11-19T15:33:12;15.50;96.00
32097;DHT22;18610;49.916;8.284;2023-11-19T15:35:38;15.40;95.70
32097;DHT22;18610;49.916;8.284;2023-11-19T15:38:06;15.40;95.60
32097;DHT22;18610;49.916;8.284;2023-11-19T15:40:35;15.20;95.80